sensor_id;sensor_type;location;lat;lon;timestamp;temperature;humidity
14210;DHT22;7188;56.070;12.698;2023-05-28T00:00:33;10.20;1.00
14210;DHT22;7188;56.070;12.698;2023-05-28T00:03:01;10.20;99.90
14210;DHT22;7188;56.070;12.698;2023-05-28T00:05:27;10.20;7.80
14210;DHT22;7188;56.070;12.698;2023-05-28T00:07:53;10.20;99.90
14210;DHT22;7188;56.070;12.698;2023-05-28T00:10:18;10.20;99.90
14210;DHT22;7188;56.070;12.698;2023-05-28T00:12:44;10.10;11.60
14210;DHT22;7188;56.070;12.698;2023-05-28T00:15:10;10.10;1.00
14210;DHT22;7188;56.070;12.698;2023-05-28T00:17:36;10.10;1.00
14210;DHT22;7188;56.070;12.698;2023-05-28T00:20:02;10.00;1.00
14210;DHT22;7188;56.070;12.698;2023-05-28T00:22:29;10.00;1.00
14210;DHT22;7188;56.070;12.698;2023-05-28T00:24:55;10.00;1.00
14210;DHT22;7188;56.070;12.698;2023-05-28T00:27:20;10.00;1.00
14210;DHT22;7188;56.070;12.698;2023-05-28T00:29:46;10.00;1.00
14210;DHT22;7188;56.070;12.698;2023-05-28T00:32:12;10.00;1.00
14210;DHT22;7188;56.070;12.698;2023-05-28T00:34:38;10.00;1.00
14210;DHT22;7188;56.070;12.698;2023-05-28T00:37:04;10.00;1.00
14210;DHT22;7188;56.070;12.698;2023-05-28T00:39:30;10.00;1.00
14210;DHT22;7188;56.070;12.698;2023-05-28T00:42:03;10.00;99.90
14210;DHT22;7188;56.070;12.698;2023-05-28T00:44:30;9.90;99.90
14210;DHT22;7188;56.070;12.698;2023-05-28T00:46:57;9.90;99.90
14210;DHT22;7188;56.070;12.698;2023-05-28T00:49:23;9.90;99.90
14210;DHT22;7188;56.070;12.698;2023-05-28T00:51:49;9.80;1.00
14210;DHT22;7188;56.070;12.698;2023-05-28T00:54:15;9.80;1.00
14210;DHT22;7188;56.070;12.698;2023-05-28T00:56:41;9.70;1.00
14210;DHT22;7188;56.070;12.698;2023-05-28T00:59:09;9.70;1.00
14210;DHT22;7188;56.070;12.698;2023-05-28T01:01:36;9.70;93.70
14210;DHT22;7188;56.070;12.698;2023-05-28T01:04:02;9.70;99.90
14210;DHT22;7188;56.070;12.698;2023-05-28T01:06:28;9.70;99.90
14210;DHT22;7188;56.070;12.698;2023-05-28T01:08:55;9.70;1.00
14210;DHT22;7188;56.070;12.698;2023-05-28T01:11:22;9.70;1.00
14210;DHT22;7188;56.070;12.698;2023-05-28T01:13:51;9.70;99.90
14210;DHT22;7188;56.070;12.698;2023-05-28T01:16:17;9.70;99.90
14210;DHT22;7188;56.070;12.698;2023-05-28T01:18:43;9.80;99.90
14210;DHT22;7188;56.070;12.698;2023-05-28T01:21:14;9.80;1.00
14210;DHT22;7188;56.070;12.698;2023-05-28T01:23:47;9.80;99.90
14210;DHT22;7188;56.070;12.698;2023-05-28T01:26:15;9.90;1.00
14210;DHT22;7188;56.070;12.698;2023-05-28T01:28:45;10.00;99.90
14210;DHT22;7188;56.070;12.698;2023-05-28T01:31:13;10.10;99.90
14210;DHT22;7188;56.070;12.698;2023-05-28T01:33:40;10.20;99.90
14210;DHT22;7188;56.070;12.698;2023-05-28T01:36:25;10.40;1.00
14210;DHT22;7188;56.070;12.698;2023-05-28T01:38:52;10.60;1.00
14210;DHT22;7188;56.070;12.698;2023-05-28T01:41:25;10.80;1.00
14210;DHT22;7188;56.070;12.698;2023-05-28T01:43:51;10.90;1.00
14210;DHT22;7188;56.070;12.698;2023-05-28T01:46:19;10.90;1.00
14210;DHT22;7188;56.070;12.698;2023-05-28T01:48:46;10.80;1.00
14210;DHT22;7188;56.070;12.698;2023-05-28T01:51:22;10.90;1.00
14210;DHT22;7188;56.070;12.698;2023-05-28T01:53:48;10.90;1.00
14210;DHT22;7188;56.070;12.698;2023-05-28T01:56:14;10.90;1.00
14210;DHT22;7188;56.070;12.698;2023-05-28T01:58:39;10.90;1.00
14210;DHT22;7188;56.070;12.698;2023-05-28T02:03:56;10.90;1.00
14210;DHT22;7188;56.070;12.698;2023-05-28T02:06:24;10.90;1.00
14210;DHT22;7188;56.070;12.698;2023-05-28T02:08:50;10.80;1.00
14210;DHT22;7188;56.070;12.698;2023-05-28T02:11:16;10.80;1.00
14210;DHT22;7188;56.070;12.698;2023-05-28T02:13:42;10.70;1.00
14210;DHT22;7188;56.070;12.698;2023-05-28T02:16:08;10.70;1.00
14210;DHT22;7188;56.070;12.698;2023-05-28T02:18:37;10.70;1.00
14210;DHT22;7188;56.070;12.698;2023-05-28T02:21:03;10.70;1.00
14210;DHT22;7188;56.070;12.698;2023-05-28T02:23:29;10.60;1.00
14210;DHT22;7188;56.070;12.698;2023-05-28T02:25:56;10.60;1.00
14210;DHT22;7188;56.070;12.698;2023-05-28T02:28:22;10.60;69.90
14210;DHT22;7188;56.070;12.698;2023-05-28T02:30:47;10.70;99.90
14210;DHT22;7188;56.070;12.698;2023-05-28T02:33:13;10.80;99.90
14210;DHT22;7188;56.070;12.698;2023-05-28T02:35:38;10.80;99.90
14210;DHT22;7188;56.070;12.698;2023-05-28T02:38:04;10.90;99.90
14210;DHT22;7188;56.070;12.698;2023-05-28T02:40:31;10.90;99.90
14210;DHT22;7188;56.070;12.698;2023-05-28T02:42:57;10.90;99.90
14210;DHT22;7188;56.070;12.698;2023-05-28T02:45:22;11.00;99.90
14210;DHT22;7188;56.070;12.698;2023-05-28T02:47:48;11.00;99.90
14210;DHT22;7188;56.070;12.698;2023-05-28T02:50:14;11.10;99.90
14210;DHT22;7188;56.070;12.698;2023-05-28T02:52:39;11.10;99.90
14210;DHT22;7188;56.070;12.698;2023-05-28T02:55:06;11.10;91.40
14210;DHT22;7188;56.070;12.698;2023-05-28T02:57:32;11.10;55.80
14210;DHT22;7188;56.070;12.698;2023-05-28T02:59:57;11.10;53.00
14210;DHT22;7188;56.070;12.698;2023-05-28T03:02:23;11.10;16.90
14210;DHT22;7188;56.070;12.698;2023-05-28T03:04:48;11.10;1.00
14210;DHT22;7188;56.070;12.698;2023-05-28T03:07:14;11.00;1.00
14210;DHT22;7188;56.070;12.698;2023-05-28T03:09:40;11.00;1.00
14210;DHT22;7188;56.070;12.698;2023-05-28T03:12:06;11.00;1.00
14210;DHT22;7188;56.070;12.698;2023-05-28T03:14:32;11.00;99.90
14210;DHT22;7188;56.070;12.698;2023-05-28T03:16:58;11.00;1.00
14210;DHT22;7188;56.070;12.698;2023-05-28T03:19:23;11.00;99.90
14210;DHT22;7188;56.070;12.698;2023-05-28T03:21:49;11.00;1.00
14210;DHT22;7188;56.070;12.698;2023-05-28T03:24:15;11.10;1.00
14210;DHT22;7188;56.070;12.698;2023-05-28T03:26:40;11.10;1.00
14210;DHT22;7188;56.070;12.698;2023-05-28T03:29:06;11.10;99.90
14210;DHT22;7188;56.070;12.698;2023-05-28T03:31:45;11.10;99.90
14210;DHT22;7188;56.070;12.698;2023-05-28T03:34:11;11.10;99.90
14210;DHT22;7188;56.070;12.698;2023-05-28T03:36:37;11.20;34.40
14210;DHT22;7188;56.070;12.698;2023-05-28T03:39:09;11.20;28.10
14210;DHT22;7188;56.070;12.698;2023-05-28T03:41:35;11.30;1.00
14210;DHT22;7188;56.070;12.698;2023-05-28T03:44:01;11.30;1.00
14210;DHT22;7188;56.070;12.698;2023-05-28T03:46:27;11.40;1.00
14210;DHT22;7188;56.070;12.698;2023-05-28T03:48:53;11.40;1.00
14210;DHT22;7188;56.070;12.698;2023-05-28T03:51:19;11.40;1.00
14210;DHT22;7188;56.070;12.698;2023-05-28T03:53:44;11.40;99.90
14210;DHT22;7188;56.070;12.698;2023-05-28T03:56:10;11.50;99.90
14210;DHT22;7188;56.070;12.698;2023-05-28T03:58:36;11.60;99.90
14210;DHT22;7188;56.070;12.698;2023-05-28T04:01:01;11.70;99.90
14210;DHT22;7188;56.070;12.698;2023-05-28T04:03:27;11.70;99.90
14210;DHT22;7188;56.070;12.698;2023-05-28T04:05:53;11.70;99.90
14210;DHT22;7188;56.070;12.698;2023-05-28T04:08:18;11.80;99.90
14210;DHT22;7188;56.070;12.698;2023-05-28T04:10:44;11.90;42.10
14210;DHT22;7188;56.070;12.698;2023-05-28T04:13:10;11.90;1.00
14210;DHT22;7188;56.070;12.698;2023-05-28T04:15:35;11.90;1.00
14210;DHT22;7188;56.070;12.698;2023-05-28T04:18:01;11.90;1.00
14210;DHT22;7188;56.070;12.698;2023-05-28T04:20:27;11.90;1.00
14210;DHT22;7188;56.070;12.698;2023-05-28T04:22:53;11.90;1.00
14210;DHT22;7188;56.070;12.698;2023-05-28T04:25:18;11.90;1.00
14210;DHT22;7188;56.070;12.698;2023-05-28T04:27:44;11.80;1.00
14210;DHT22;7188;56.070;12.698;2023-05-28T04:30:11;11.80;1.00
14210;DHT22;7188;56.070;12.698;2023-05-28T04:32:37;11.80;1.00
14210;DHT22;7188;56.070;12.698;2023-05-28T04:35:08;11.80;1.00
14210;DHT22;7188;56.070;12.698;2023-05-28T04:37:34;11.90;7.30
14210;DHT22;7188;56.070;12.698;2023-05-28T04:40:03;11.90;99.90
14210;DHT22;7188;56.070;12.698;2023-05-28T04:42:29;11.90;99.90
14210;DHT22;7188;56.070;12.698;2023-05-28T04:44:55;12.00;99.90
14210;DHT22;7188;56.070;12.698;2023-05-28T04:47:21;12.10;99.90
14210;DHT22;7188;56.070;12.698;2023-05-28T04:49:48;12.20;88.90
14210;DHT22;7188;56.070;12.698;2023-05-28T04:52:16;12.30;1.00
14210;DHT22;7188;56.070;12.698;2023-05-28T04:54:44;12.40;1.00
14210;DHT22;7188;56.070;12.698;2023-05-28T04:57:10;12.70;1.00
14210;DHT22;7188;56.070;12.698;2023-05-28T04:59:36;12.80;99.90
14210;DHT22;7188;56.070;12.698;2023-05-28T05:02:02;13.00;99.90
14210;DHT22;7188;56.070;12.698;2023-05-28T05:04:29;13.10;1.00
14210;DHT22;7188;56.070;12.698;2023-05-28T05:06:55;13.20;1.00
14210;DHT22;7188;56.070;12.698;2023-05-28T05:09:21;13.20;1.00
14210;DHT22;7188;56.070;12.698;2023-05-28T05:11:47;13.40;1.00
14210;DHT22;7188;56.070;12.698;2023-05-28T05:14:12;13.60;1.00
14210;DHT22;7188;56.070;12.698;2023-05-28T05:16:56;13.80;1.00
14210;DHT22;7188;56.070;12.698;2023-05-28T05:19:22;13.90;99.90
14210;DHT22;7188;56.070;12.698;2023-05-28T05:21:48;14.10;99.90
14210;DHT22;7188;56.070;12.698;2023-05-28T05:24:14;14.30;99.90
14210;DHT22;7188;56.070;12.698;2023-05-28T05:26:40;14.40;26.20
14210;DHT22;7188;56.070;12.698;2023-05-28T05:29:06;14.50;50.30
14210;DHT22;7188;56.070;12.698;2023-05-28T05:31:31;14.50;1.00
14210;DHT22;7188;56.070;12.698;2023-05-28T05:33:57;14.50;1.00
14210;DHT22;7188;56.070;12.698;2023-05-28T05:36:23;14.50;1.00
14210;DHT22;7188;56.070;12.698;2023-05-28T05:38:48;14.40;2.60
14210;DHT22;7188;56.070;12.698;2023-05-28T05:41:14;14.30;27.50
14210;DHT22;7188;56.070;12.698;2023-05-28T05:43:39;14.20;91.50
14210;DHT22;7188;56.070;12.698;2023-05-28T05:46:05;14.20;99.90
14210;DHT22;7188;56.070;12.698;2023-05-28T05:48:31;14.10;99.90
14210;DHT22;7188;56.070;12.698;2023-05-28T05:50:56;14.00;99.90
14210;DHT22;7188;56.070;12.698;2023-05-28T05:53:24;13.90;99.90
14210;DHT22;7188;56.070;12.698;2023-05-28T05:56:08;13.80;99.90
14210;DHT22;7188;56.070;12.698;2023-05-28T05:58:36;13.50;1.00
14210;DHT22;7188;56.070;12.698;2023-05-28T06:01:02;13.40;1.00
14210;DHT22;7188;56.070;12.698;2023-05-28T06:03:28;13.30;99.90
14210;DHT22;7188;56.070;12.698;2023-05-28T06:05:54;13.30;99.90
14210;DHT22;7188;56.070;12.698;2023-05-28T06:08:21;13.20;99.90
14210;DHT22;7188;56.070;12.698;2023-05-28T06:10:47;13.20;99.90
14210;DHT22;7188;56.070;12.698;2023-05-28T06:13:16;13.10;99.90
14210;DHT22;7188;56.070;12.698;2023-05-28T06:15:43;13.00;1.00
14210;DHT22;7188;56.070;12.698;2023-05-28T06:18:09;13.00;1.00
14210;DHT22;7188;56.070;12.698;2023-05-28T06:20:35;13.00;1.00
14210;DHT22;7188;56.070;12.698;2023-05-28T06:23:01;13.00;1.00
14210;DHT22;7188;56.070;12.698;2023-05-28T06:25:26;13.00;1.00
14210;DHT22;7188;56.070;12.698;2023-05-28T06:27:53;13.00;1.00
14210;DHT22;7188;56.070;12.698;2023-05-28T06:30:19;13.00;1.00
14210;DHT22;7188;56.070;12.698;2023-05-28T06:32:44;13.10;11.10
14210;DHT22;7188;56.070;12.698;2023-05-28T06:35:13;13.20;1.00
14210;DHT22;7188;56.070;12.698;2023-05-28T06:37:39;13.40;99.90
14210;DHT22;7188;56.070;12.698;2023-05-28T06:40:06;13.60;99.90
14210;DHT22;7188;56.070;12.698;2023-05-28T06:42:32;13.50;99.90
14210;DHT22;7188;56.070;12.698;2023-05-28T06:44:58;13.50;99.90
14210;DHT22;7188;56.070;12.698;2023-05-28T06:47:27;13.40;99.90
14210;DHT22;7188;56.070;12.698;2023-05-28T06:49:54;13.30;99.90
14210;DHT22;7188;56.070;12.698;2023-05-28T06:52:21;13.50;99.90
14210;DHT22;7188;56.070;12.698;2023-05-28T06:54:47;13.60;99.90
14210;DHT22;7188;56.070;12.698;2023-05-28T06:57:12;13.80;99.90
14210;DHT22;7188;56.070;12.698;2023-05-28T06:59:38;13.80;1.00
14210;DHT22;7188;56.070;12.698;2023-05-28T07:02:04;13.80;1.00
14210;DHT22;7188;56.070;12.698;2023-05-28T07:04:30;13.80;1.00
14210;DHT22;7188;56.070;12.698;2023-05-28T07:06:55;13.80;1.00
14210;DHT22;7188;56.070;12.698;2023-05-28T07:09:21;13.70;1.00
14210;DHT22;7188;56.070;12.698;2023-05-28T07:11:47;13.60;1.00
14210;DHT22;7188;56.070;12.698;2023-05-28T07:14:13;13.60;99.90
14210;DHT22;7188;56.070;12.698;2023-05-28T07:16:39;13.70;56.20
14210;DHT22;7188;56.070;12.698;2023-05-28T07:19:05;13.90;1.00
14210;DHT22;7188;56.070;12.698;2023-05-28T07:21:31;13.80;1.00
14210;DHT22;7188;56.070;12.698;2023-05-28T07:23:58;14.00;1.00
14210;DHT22;7188;56.070;12.698;2023-05-28T07:26:23;14.00;1.00
14210;DHT22;7188;56.070;12.698;2023-05-28T07:28:49;13.90;99.90
14210;DHT22;7188;56.070;12.698;2023-05-28T07:31:16;14.10;1.00
14210;DHT22;7188;56.070;12.698;2023-05-28T07:33:41;14.20;99.90
14210;DHT22;7188;56.070;12.698;2023-05-28T07:36:07;14.30;99.90
14210;DHT22;7188;56.070;12.698;2023-05-28T07:38:34;14.40;99.90
14210;DHT22;7188;56.070;12.698;2023-05-28T07:41:00;14.40;99.90
14210;DHT22;7188;56.070;12.698;2023-05-28T07:43:25;14.40;99.90
14210;DHT22;7188;56.070;12.698;2023-05-28T07:45:51;14.50;88.90
14210;DHT22;7188;56.070;12.698;2023-05-28T07:48:18;14.50;68.10
14210;DHT22;7188;56.070;12.698;2023-05-28T07:50:44;14.40;59.70
14210;DHT22;7188;56.070;12.698;2023-05-28T07:53:10;14.20;99.90
14210;DHT22;7188;56.070;12.698;2023-05-28T07:55:36;14.30;99.90
14210;DHT22;7188;56.070;12.698;2023-05-28T07:58:01;14.30;99.90
14210;DHT22;7188;56.070;12.698;2023-05-28T08:00:28;14.40;99.90
14210;DHT22;7188;56.070;12.698;2023-05-28T08:02:53;14.50;99.90
14210;DHT22;7188;56.070;12.698;2023-05-28T08:05:19;14.50;1.00
14210;DHT22;7188;56.070;12.698;2023-05-28T08:07:45;14.60;1.00
14210;DHT22;7188;56.070;12.698;2023-05-28T08:10:10;14.90;1.00
14210;DHT22;7188;56.070;12.698;2023-05-28T08:12:36;14.90;1.00
14210;DHT22;7188;56.070;12.698;2023-05-28T08:15:02;14.90;1.00
14210;DHT22;7188;56.070;12.698;2023-05-28T08:17:32;15.10;1.00
14210;DHT22;7188;56.070;12.698;2023-05-28T08:19:58;15.10;1.00
14210;DHT22;7188;56.070;12.698;2023-05-28T08:22:23;15.20;1.00
14210;DHT22;7188;56.070;12.698;2023-05-28T08:24:51;15.30;1.00
14210;DHT22;7188;56.070;12.698;2023-05-28T08:27:16;15.20;1.00
14210;DHT22;7188;56.070;12.698;2023-05-28T08:29:42;15.30;1.00
14210;DHT22;7188;56.070;12.698;2023-05-28T08:32:08;15.30;99.90
14210;DHT22;7188;56.070;12.698;2023-05-28T08:34:33;15.40;99.90
14210;DHT22;7188;56.070;12.698;2023-05-28T08:37:03;15.60;99.90
14210;DHT22;7188;56.070;12.698;2023-05-28T08:39:29;15.60;99.90
14210;DHT22;7188;56.070;12.698;2023-05-28T08:42:01;15.60;99.90
14210;DHT22;7188;56.070;12.698;2023-05-28T08:44:27;15.60;99.90
14210;DHT22;7188;56.070;12.698;2023-05-28T08:46:55;15.50;99.90
14210;DHT22;7188;56.070;12.698;2023-05-28T08:49:21;15.60;99.90
14210;DHT22;7188;56.070;12.698;2023-05-28T08:51:52;15.80;99.90
14210;DHT22;7188;56.070;12.698;2023-05-28T08:54:18;16.00;99.90
14210;DHT22;7188;56.070;12.698;2023-05-28T08:56:44;15.70;99.90
14210;DHT22;7188;56.070;12.698;2023-05-28T08:59:10;15.40;99.90
14210;DHT22;7188;56.070;12.698;2023-05-28T09:01:38;15.40;99.90
14210;DHT22;7188;56.070;12.698;2023-05-28T09:04:05;15.20;99.90
14210;DHT22;7188;56.070;12.698;2023-05-28T09:06:31;15.00;99.90
14210;DHT22;7188;56.070;12.698;2023-05-28T09:08:57;15.00;99.90
14210;DHT22;7188;56.070;12.698;2023-05-28T09:11:23;15.20;99.90
14210;DHT22;7188;56.070;12.698;2023-05-28T09:13:49;15.40;99.90
14210;DHT22;7188;56.070;12.698;2023-05-28T09:16:22;15.60;99.90
14210;DHT22;7188;56.070;12.698;2023-05-28T09:18:49;15.80;99.90
14210;DHT22;7188;56.070;12.698;2023-05-28T09:21:18;15.70;99.90
14210;DHT22;7188;56.070;12.698;2023-05-28T09:23:43;15.70;99.90
14210;DHT22;7188;56.070;12.698;2023-05-28T09:26:11;15.50;99.90
14210;DHT22;7188;56.070;12.698;2023-05-28T09:28:41;15.50;99.90
14210;DHT22;7188;56.070;12.698;2023-05-28T09:31:08;15.70;99.90
14210;DHT22;7188;56.070;12.698;2023-05-28T09:33:34;15.70;99.90
14210;DHT22;7188;56.070;12.698;2023-05-28T09:36:02;15.80;99.90
14210;DHT22;7188;56.070;12.698;2023-05-28T09:38:38;15.80;99.90
14210;DHT22;7188;56.070;12.698;2023-05-28T09:41:20;15.80;99.90
14210;DHT22;7188;56.070;12.698;2023-05-28T09:43:47;15.80;99.90
14210;DHT22;7188;56.070;12.698;2023-05-28T09:46:20;15.80;99.90
14210;DHT22;7188;56.070;12.698;2023-05-28T09:48:45;15.70;99.90
14210;DHT22;7188;56.070;12.698;2023-05-28T09:51:13;15.50;99.90
14210;DHT22;7188;56.070;12.698;2023-05-28T09:53:43;15.60;99.90
14210;DHT22;7188;56.070;12.698;2023-05-28T09:56:11;15.80;99.90
14210;DHT22;7188;56.070;12.698;2023-05-28T09:58:41;15.60;99.90
14210;DHT22;7188;56.070;12.698;2023-05-28T10:01:12;15.50;99.90
14210;DHT22;7188;56.070;12.698;2023-05-28T10:03:43;15.40;99.90
14210;DHT22;7188;56.070;12.698;2023-05-28T10:06:17;15.40;99.90
14210;DHT22;7188;56.070;12.698;2023-05-28T10:08:48;15.20;99.90
14210;DHT22;7188;56.070;12.698;2023-05-28T10:11:16;15.30;99.90
14210;DHT22;7188;56.070;12.698;2023-05-28T10:13:45;15.50;99.90
14210;DHT22;7188;56.070;12.698;2023-05-28T10:16:14;15.60;99.90
14210;DHT22;7188;56.070;12.698;2023-05-28T10:18:42;15.50;99.90
14210;DHT22;7188;56.070;12.698;2023-05-28T10:21:07;15.50;99.90
14210;DHT22;7188;56.070;12.698;2023-05-28T10:23:34;15.60;99.90
14210;DHT22;7188;56.070;12.698;2023-05-28T10:26:01;15.60;99.90
14210;DHT22;7188;56.070;12.698;2023-05-28T10:28:29;15.50;99.90
14210;DHT22;7188;56.070;12.698;2023-05-28T10:31:06;15.70;99.90
14210;DHT22;7188;56.070;12.698;2023-05-28T10:33:37;15.70;99.90
14210;DHT22;7188;56.070;12.698;2023-05-28T10:36:17;15.70;99.90
14210;DHT22;7188;56.070;12.698;2023-05-28T10:38:45;15.70;99.90
14210;DHT22;7188;56.070;12.698;2023-05-28T10:41:17;15.70;99.90
14210;DHT22;7188;56.070;12.698;2023-05-28T10:43:45;15.50;99.90
14210;DHT22;7188;56.070;12.698;2023-05-28T10:48:41;15.80;99.90
14210;DHT22;7188;56.070;12.698;2023-05-28T10:51:08;16.00;99.90
14210;DHT22;7188;56.070;12.698;2023-05-28T10:53:33;16.10;99.90
14210;DHT22;7188;56.070;12.698;2023-05-28T10:56:01;16.10;99.90
14210;DHT22;7188;56.070;12.698;2023-05-28T10:58:35;15.90;99.90
14210;DHT22;7188;56.070;12.698;2023-05-28T11:03:42;15.90;99.90
14210;DHT22;7188;56.070;12.698;2023-05-28T11:06:09;16.20;99.90
14210;DHT22;7188;56.070;12.698;2023-05-28T11:08:46;16.40;99.90
14210;DHT22;7188;56.070;12.698;2023-05-28T11:11:14;16.20;71.60
14210;DHT22;7188;56.070;12.698;2023-05-28T11:13:45;16.20;92.70
14210;DHT22;7188;56.070;12.698;2023-05-28T11:16:12;16.10;99.90
14210;DHT22;7188;56.070;12.698;2023-05-28T11:18:39;16.30;93.70
14210;DHT22;7188;56.070;12.698;2023-05-28T11:21:24;16.40;1.00
14210;DHT22;7188;56.070;12.698;2023-05-28T11:24:03;16.30;1.00
14210;DHT22;7188;56.070;12.698;2023-05-28T11:26:30;16.40;1.00
14210;DHT22;7188;56.070;12.698;2023-05-28T11:28:57;16.20;1.00
14210;DHT22;7188;56.070;12.698;2023-05-28T11:31:22;16.10;1.00
14210;DHT22;7188;56.070;12.698;2023-05-28T11:33:49;16.10;99.90
14210;DHT22;7188;56.070;12.698;2023-05-28T11:36:15;16.40;99.90
14210;DHT22;7188;56.070;12.698;2023-05-28T11:38:40;16.60;53.00
14210;DHT22;7188;56.070;12.698;2023-05-28T11:41:06;16.70;1.00
14210;DHT22;7188;56.070;12.698;2023-05-28T11:43:32;16.60;1.00
14210;DHT22;7188;56.070;12.698;2023-05-28T11:45:59;16.30;1.00
14210;DHT22;7188;56.070;12.698;2023-05-28T11:48:26;15.90;71.20
14210;DHT22;7188;56.070;12.698;2023-05-28T11:50:59;16.10;99.90
14210;DHT22;7188;56.070;12.698;2023-05-28T11:53:49;16.10;99.90
14210;DHT22;7188;56.070;12.698;2023-05-28T11:56:15;16.00;99.90
14210;DHT22;7188;56.070;12.698;2023-05-28T11:58:45;15.70;99.90
14210;DHT22;7188;56.070;12.698;2023-05-28T12:01:16;15.60;99.90
14210;DHT22;7188;56.070;12.698;2023-05-28T12:03:43;15.80;99.90
14210;DHT22;7188;56.070;12.698;2023-05-28T12:06:08;16.10;38.10
14210;DHT22;7188;56.070;12.698;2023-05-28T12:08:38;15.90;1.00
14210;DHT22;7188;56.070;12.698;2023-05-28T12:11:04;16.10;1.00
14210;DHT22;7188;56.070;12.698;2023-05-28T12:13:47;15.80;1.00
14210;DHT22;7188;56.070;12.698;2023-05-28T12:16:13;15.70;1.00
14210;DHT22;7188;56.070;12.698;2023-05-28T12:18:41;15.90;1.00
14210;DHT22;7188;56.070;12.698;2023-05-28T12:21:12;16.00;1.00
14210;DHT22;7188;56.070;12.698;2023-05-28T12:23:38;16.20;1.00
14210;DHT22;7188;56.070;12.698;2023-05-28T12:26:09;16.10;1.00
14210;DHT22;7188;56.070;12.698;2023-05-28T12:28:37;15.90;1.00
14210;DHT22;7188;56.070;12.698;2023-05-28T12:31:05;15.70;1.00
14210;DHT22;7188;56.070;12.698;2023-05-28T12:33:31;15.80;1.00
14210;DHT22;7188;56.070;12.698;2023-05-28T12:35:57;15.60;1.00
14210;DHT22;7188;56.070;12.698;2023-05-28T12:38:25;15.40;1.00
14210;DHT22;7188;56.070;12.698;2023-05-28T12:40:51;15.40;1.00
14210;DHT22;7188;56.070;12.698;2023-05-28T12:43:16;15.40;1.00
14210;DHT22;7188;56.070;12.698;2023-05-28T12:45:42;15.50;1.00
14210;DHT22;7188;56.070;12.698;2023-05-28T12:48:08;15.60;1.00
14210;DHT22;7188;56.070;12.698;2023-05-28T12:50:34;15.80;1.00
14210;DHT22;7188;56.070;12.698;2023-05-28T12:53:00;15.90;1.00
14210;DHT22;7188;56.070;12.698;2023-05-28T12:55:28;15.80;1.00
14210;DHT22;7188;56.070;12.698;2023-05-28T12:57:54;15.60;1.00
14210;DHT22;7188;56.070;12.698;2023-05-28T13:00:20;15.70;1.00
14210;DHT22;7188;56.070;12.698;2023-05-28T13:02:46;15.60;1.00
14210;DHT22;7188;56.070;12.698;2023-05-28T13:05:12;15.70;1.00
14210;DHT22;7188;56.070;12.698;2023-05-28T13:07:38;15.60;1.00
14210;DHT22;7188;56.070;12.698;2023-05-28T13:10:04;15.70;1.00
14210;DHT22;7188;56.070;12.698;2023-05-28T13:12:33;15.90;1.00
14210;DHT22;7188;56.070;12.698;2023-05-28T13:15:04;16.10;1.00
14210;DHT22;7188;56.070;12.698;2023-05-28T13:17:29;16.20;1.00
14210;DHT22;7188;56.070;12.698;2023-05-28T13:19:55;16.40;1.00
14210;DHT22;7188;56.070;12.698;2023-05-28T13:22:21;16.30;1.00
14210;DHT22;7188;56.070;12.698;2023-05-28T13:24:46;16.00;1.00
14210;DHT22;7188;56.070;12.698;2023-05-28T13:27:12;15.80;1.00
14210;DHT22;7188;56.070;12.698;2023-05-28T13:29:38;15.90;1.00
14210;DHT22;7188;56.070;12.698;2023-05-28T13:32:04;15.90;1.00
14210;DHT22;7188;56.070;12.698;2023-05-28T13:34:29;15.90;1.00
14210;DHT22;7188;56.070;12.698;2023-05-28T13:36:55;15.90;1.00
14210;DHT22;7188;56.070;12.698;2023-05-28T13:39:21;16.00;1.00
14210;DHT22;7188;56.070;12.698;2023-05-28T13:41:48;16.10;1.00
14210;DHT22;7188;56.070;12.698;2023-05-28T13:44:14;16.00;1.00
14210;DHT22;7188;56.070;12.698;2023-05-28T13:46:40;15.90;1.00
14210;DHT22;7188;56.070;12.698;2023-05-28T13:49:06;16.00;1.00
14210;DHT22;7188;56.070;12.698;2023-05-28T13:51:31;15.90;1.00
14210;DHT22;7188;56.070;12.698;2023-05-28T13:53:57;15.90;1.00
14210;DHT22;7188;56.070;12.698;2023-05-28T13:56:23;15.80;1.00
14210;DHT22;7188;56.070;12.698;2023-05-28T13:58:48;15.80;1.00
14210;DHT22;7188;56.070;12.698;2023-05-28T14:01:14;15.80;1.00
14210;DHT22;7188;56.070;12.698;2023-05-28T14:03:40;15.80;1.00
14210;DHT22;7188;56.070;12.698;2023-05-28T14:06:13;16.00;1.00
14210;DHT22;7188;56.070;12.698;2023-05-28T14:08:40;16.00;1.00
14210;DHT22;7188;56.070;12.698;2023-05-28T14:11:06;15.90;1.00
14210;DHT22;7188;56.070;12.698;2023-05-28T14:13:32;16.00;1.00
14210;DHT22;7188;56.070;12.698;2023-05-28T14:15:58;16.10;1.00
14210;DHT22;7188;56.070;12.698;2023-05-28T14:18:24;16.10;1.00
14210;DHT22;7188;56.070;12.698;2023-05-28T14:20:49;16.20;1.00
14210;DHT22;7188;56.070;12.698;2023-05-28T14:23:15;16.10;1.00
14210;DHT22;7188;56.070;12.698;2023-05-28T14:25:41;16.00;1.00
14210;DHT22;7188;56.070;12.698;2023-05-28T14:28:07;15.90;1.00
14210;DHT22;7188;56.070;12.698;2023-05-28T14:30:32;15.90;1.00
14210;DHT22;7188;56.070;12.698;2023-05-28T14:32:58;16.10;1.00
14210;DHT22;7188;56.070;12.698;2023-05-28T14:35:23;16.20;1.00
14210;DHT22;7188;56.070;12.698;2023-05-28T14:37:50;16.20;1.00
14210;DHT22;7188;56.070;12.698;2023-05-28T14:40:19;16.20;1.00
14210;DHT22;7188;56.070;12.698;2023-05-28T14:42:46;15.90;1.00
14210;DHT22;7188;56.070;12.698;2023-05-28T14:45:12;15.60;1.00
14210;DHT22;7188;56.070;12.698;2023-05-28T14:47:38;15.60;1.00
14210;DHT22;7188;56.070;12.698;2023-05-28T14:50:13;15.80;1.00
14210;DHT22;7188;56.070;12.698;2023-05-28T14:52:39;15.80;1.00
14210;DHT22;7188;56.070;12.698;2023-05-28T14:55:07;16.00;1.00
14210;DHT22;7188;56.070;12.698;2023-05-28T14:57:33;16.00;1.00
14210;DHT22;7188;56.070;12.698;2023-05-28T15:00:03;15.90;1.00
14210;DHT22;7188;56.070;12.698;2023-05-28T15:02:33;15.90;1.00
14210;DHT22;7188;56.070;12.698;2023-05-28T15:04:59;16.10;1.00
14210;DHT22;7188;56.070;12.698;2023-05-28T15:07:25;16.10;1.00
14210;DHT22;7188;56.070;12.698;2023-05-28T15:09:50;15.80;1.00
14210;DHT22;7188;56.070;12.698;2023-05-28T15:12:16;15.70;1.00
14210;DHT22;7188;56.070;12.698;2023-05-28T15:14:42;15.60;1.00
14210;DHT22;7188;56.070;12.698;2023-05-28T15:17:09;15.70;1.00
14210;DHT22;7188;56.070;12.698;2023-05-28T15:19:35;15.50;1.00
14210;DHT22;7188;56.070;12.698;2023-05-28T15:22:00;15.40;1.00
14210;DHT22;7188;56.070;12.698;2023-05-28T15:24:26;15.40;1.00
14210;DHT22;7188;56.070;12.698;2023-05-28T15:26:52;15.60;1.00
14210;DHT22;7188;56.070;12.698;2023-05-28T15:29:18;15.60;1.00
14210;DHT22;7188;56.070;12.698;2023-05-28T15:31:48;15.60;1.00
14210;DHT22;7188;56.070;12.698;2023-05-28T15:34:17;15.30;1.00
14210;DHT22;7188;56.070;12.698;2023-05-28T15:36:43;15.50;1.00
14210;DHT22;7188;56.070;12.698;2023-05-28T15:39:09;15.50;1.00
14210;DHT22;7188;56.070;12.698;2023-05-28T15:41:38;15.50;1.00
14210;DHT22;7188;56.070;12.698;2023-05-28T15:44:06;15.50;1.00
14210;DHT22;7188;56.070;12.698;2023-05-28T15:46:32;15.30;1.00